Startpagina
METAR-TAF:

METAR-TAF

Vliegvelden :

Ndjamena, Tsjaad

breedte: 12-08N, lengte: 015-02E, hoogte: 295 m

Actueel weer

Dit bericht is 19 minuten geleden gemaakt, om 15:00 UTC
Wind 7 kt uit het noordwesten, variërend tussen het westen en het noorden
Temperatuur 30°C
Vochtigheid 59%
Druk 1008 hPa
Zicht: 8000 m
Verspreide wolken op 4000 ft
Weinig wolken op 5000 ft, Cumulonimbus.
onweer

METAR: FTTJ 221500Z 32007KT 280V360 8000 TS SCT040 FEW050CB 30/21 Q1008 TEMPO RA

Tijdstip: 16:19 (15:19 UTC)

Verwachting

Dit bericht is 4 uur en het 11 minuten geleden gemaakt, om 11:08 UTC
Verwachting geldig van 22 om 12 UTC tot 23 om 18 UTC
Wind 10 kt uit het westen
Zicht 10 km of meer
Verspreide wolken op 4000 ft
Tijdelijke
van 22 om 15 UTC tot 22 om 21 UTC
onweer
Wijzigt naar
van 23 om 06 UTC tot 23 om 08 UTC
Wind 8 kt uit het zuidzuidwesten
Kans 30% :
Tijdelijke
van 23 om 14 UTC tot 23 om 18 UTC
onweer

TAF: FTTJ 221108Z 2212/2318 26010KT 9999 SCT040 TEMPO 2215/2221 TS BECMG 2306/2308 20008KT PROB30 TEMPO 2314/2318 TS

Waarnemingen en weersverwachtingen van meer dan 4000 vliegvelden (METAR en TAF).

De beschikbare stations zijn de gele en rode punten op de kaart.

Ga met uw muis naar het station om de naam te zien.

Klik dan om waarnemingen en weersverwachtingen te zien.

kaart wijzigen: klik op de groene knoppen met een zwart kruis om in te zoomen, op de groene knop met een streepje om uit te zoomen of op de groene pijlen voor aangrenzende kaarten.


METAR-TAF: